Time;durP1;ratioP1;P1;durP2;ratioP2;P2;SDS_P1;SDS_P2;PMS_P1;PMS_P2;Temp;Humidity;BMP_temperature;BMP_pressure;BME280_temperature;BME280_humidity;BME280_pressure;Samples;Min_cycle;Max_cycle;Signal;HPM_P1;HPM_P2
2023/08/15 00:02:25;;;;;;;11.17;5.37;;;;;;;;;;5072199;28;20525;-63
2023/08/15 00:04:54;;;;;;;6.80;6.10;;;;;;;;;;5072308;28;20439;-63
2023/08/15 00:07:21;;;;;;;6.67;6.00;;;;;;;;;;5071905;28;20444;-63
2023/08/15 00:09:48;;;;;;;7.37;6.37;;;;;;;;;;5071987;28;20835;-62
2023/08/15 00:12:16;;;;;;;9.07;6.40;;;;;;;;;;5072351;28;20447;-63
2023/08/15 00:14:43;;;;;;;8.37;6.33;;;;;;;;;;5072440;28;20445;-62
2023/08/15 00:17:10;;;;;;;6.97;6.30;;;;;;;;;;5072604;28;20451;-63
2023/08/15 00:19:37;;;;;;;7.40;6.70;;;;;;;;;;5071885;28;20538;-63
2023/08/15 00:22:06;;;;;;;6.70;6.10;;;;;;;;;;5072029;28;20902;-63
2023/08/15 00:24:33;;;;;;;7.27;6.53;;;;;;;;;;5072619;28;20481;-62
2023/08/15 00:27:01;;;;;;;9.20;7.60;;;;;;;;;;5072166;28;20533;-62
2023/08/15 00:29:28;;;;;;;11.83;7.23;;;;;;;;;;5071825;28;20479;-62
2023/08/15 00:31:55;;;;;;;7.77;6.40;;;;;;;;;;5072087;28;20489;-63
2023/08/15 00:34:22;;;;;;;8.47;7.57;;;;;;;;;;5071918;28;20484;-62
2023/08/15 00:36:49;;;;;;;9.33;6.70;;;;;;;;;;5072242;28;20525;-62
2023/08/15 00:39:18;;;;;;;8.40;6.23;;;;;;;;;;5073297;28;20455;-62
2023/08/15 00:41:45;;;;;;;6.67;6.03;;;;;;;;;;5075793;28;20523;-62
2023/08/15 00:44:12;;;;;;;6.83;6.00;;;;;;;;;;5076105;28;20429;-62
2023/08/15 00:46:40;;;;;;;8.97;6.63;;;;;;;;;;5075817;28;20441;-62
2023/08/15 00:49:07;;;;;;;7.53;6.73;;;;;;;;;;5076033;28;20478;-62
2023/08/15 00:51:35;;;;;;;6.47;5.60;;;;;;;;;;5075611;28;20445;-62
2023/08/15 00:54:02;;;;;;;8.40;6.80;;;;;;;;;;5075661;28;20479;-62
2023/08/15 00:56:31;;;;;;;7.53;6.93;;;;;;;;;;5075429;28;20448;-62
2023/08/15 00:58:58;;;;;;;7.83;6.90;;;;;;;;;;5075799;28;20447;-62
2023/08/15 01:01:25;;;;;;;7.03;6.33;;;;;;;;;;5075730;28;20888;-62
2023/08/15 01:03:53;;;;;;;9.97;7.37;;;;;;;;;;5075757;28;20442;-62
2023/08/15 01:06:20;;;;;;;7.67;6.97;;;;;;;;;;5075381;28;20528;-62
2023/08/15 01:08:48;;;;;;;7.83;6.90;;;;;;;;;;5074954;28;20440;-62
2023/08/15 01:11:15;;;;;;;9.30;6.80;;;;;;;;;;5074921;28;20478;-62
2023/08/15 01:13:46;;;;;;;11.37;7.60;;;;;;;;;;5075226;28;20439;-63
2023/08/15 01:16:15;;;;;;;7.37;6.50;;;;;;;;;;5075335;28;20898;-63
2023/08/15 01:18:44;;;;;;;7.23;6.63;;;;;;;;;;5075084;28;20476;-63
2023/08/15 01:21:13;;;;;;;7.80;7.10;;;;;;;;;;5075045;28;20528;-62
2023/08/15 01:23:43;;;;;;;8.60;7.00;;;;;;;;;;5074611;28;20478;-63
2023/08/15 01:26:10;;;;;;;13.83;7.37;;;;;;;;;;5074902;28;20804;-62
2023/08/15 01:28:38;;;;;;;8.27;7.20;;;;;;;;;;5074890;28;20449;-63
2023/08/15 01:31:08;;;;;;;8.20;7.50;;;;;;;;;;5074884;28;20441;-62
2023/08/15 01:33:38;;;;;;;8.60;7.77;;;;;;;;;;5074336;28;20441;-63
2023/08/15 01:36:07;;;;;;;7.80;7.10;;;;;;;;;;5074398;28;20499;-63
2023/08/15 01:38:36;;;;;;;8.17;7.33;;;;;;;;;;5074278;28;20528;-63
2023/08/15 01:41:05;;;;;;;8.00;7.20;;;;;;;;;;5074820;28;20533;-63
2023/08/15 01:43:33;;;;;;;10.03;7.03;;;;;;;;;;5075080;28;20535;-63
2023/08/15 01:46:01;;;;;;;8.50;7.60;;;;;;;;;;5074441;28;20527;-63
2023/08/15 01:48:28;;;;;;;10.30;7.73;;;;;;;;;;5074041;28;20981;-63
2023/08/15 01:50:55;;;;;;;8.37;7.43;;;;;;;;;;5072927;28;20997;-62
2023/08/15 01:53:22;;;;;;;8.93;8.13;;;;;;;;;;5074262;28;20794;-62
2023/08/15 01:55:50;;;;;;;11.53;7.90;;;;;;;;;;5074706;28;20528;-63
2023/08/15 01:58:18;;;;;;;8.20;7.50;;;;;;;;;;5074055;28;20446;-63
2023/08/15 02:00:46;;;;;;;8.33;7.60;;;;;;;;;;5075017;28;20776;-62
2023/08/15 02:03:13;;;;;;;8.73;7.57;;;;;;;;;;5073817;28;20456;-62
2023/08/15 02:05:40;;;;;;;9.93;8.90;;;;;;;;;;5074111;28;20521;-62
2023/08/15 02:08:08;;;;;;;8.17;7.40;;;;;;;;;;5073608;28;20440;-63
2023/08/15 02:10:35;;;;;;;8.53;7.70;;;;;;;;;;5073827;28;20623;-63
2023/08/15 02:13:02;;;;;;;14.63;8.40;;;;;;;;;;5073509;28;20437;-63
2023/08/15 02:15:31;;;;;;;8.80;7.90;;;;;;;;;;5074265;28;20436;-62
2023/08/15 02:17:58;;;;;;;9.20;8.10;;;;;;;;;;5073502;28;20444;-62
2023/08/15 02:20:25;;;;;;;9.27;7.70;;;;;;;;;;5073437;28;20440;-62
2023/08/15 02:22:52;;;;;;;11.83;7.57;;;;;;;;;;5073365;28;20449;-62
2023/08/15 02:25:19;;;;;;;8.53;7.63;;;;;;;;;;5073600;28;20428;-62
2023/08/15 02:27:47;;;;;;;8.07;7.40;;;;;;;;;;5073581;28;20441;-63
2023/08/15 02:30:14;;;;;;;9.10;8.27;;;;;;;;;;5073199;28;20480;-62
2023/08/15 02:32:42;;;;;;;8.37;7.53;;;;;;;;;;5073415;28;20440;-63
2023/08/15 02:35:11;;;;;;;9.20;8.30;;;;;;;;;;5073494;28;20807;-62
2023/08/15 02:37:38;;;;;;;8.00;7.30;;;;;;;;;;5073264;28;20547;-62
2023/08/15 02:40:08;;;;;;;9.80;8.23;;;;;;;;;;5072997;28;20453;-62
2023/08/15 02:42:35;;;;;;;8.13;7.33;;;;;;;;;;5073442;28;20912;-63
2023/08/15 02:45:02;;;;;;;12.80;8.00;;;;;;;;;;5072920;28;20432;-62
2023/08/15 02:47:29;;;;;;;10.93;8.57;;;;;;;;;;5072994;28;20440;-62
2023/08/15 02:49:58;;;;;;;13.63;8.97;;;;;;;;;;5073056;28;20826;-63
2023/08/15 02:52:28;;;;;;;10.47;9.57;;;;;;;;;;5073125;28;20471;-62
2023/08/15 02:54:55;;;;;;;11.07;9.97;;;;;;;;;;5072867;28;20476;-62
2023/08/15 02:57:22;;;;;;;10.93;8.97;;;;;;;;;;5073082;28;20527;-62
2023/08/15 02:59:50;;;;;;;9.50;8.70;;;;;;;;;;5072606;28;20537;-62
2023/08/15 03:02:17;;;;;;;10.93;9.87;;;;;;;;;;5072986;28;20524;-63
2023/08/15 03:04:44;;;;;;;10.87;9.87;;;;;;;;;;5073282;28;20735;-63
2023/08/15 03:07:13;;;;;;;10.03;9.03;;;;;;;;;;5073435;28;20449;-63
2023/08/15 03:09:40;;;;;;;12.07;9.90;;;;;;;;;;5072858;28;20477;-62
2023/08/15 03:12:07;;;;;;;9.83;8.90;;;;;;;;;;5072686;28;20487;-62
2023/08/15 03:14:34;;;;;;;9.93;8.30;;;;;;;;;;5072834;28;20437;-62
2023/08/15 03:17:03;;;;;;;9.63;8.60;;;;;;;;;;5072881;28;20449;-62
2023/08/15 03:19:30;;;;;;;9.17;8.27;;;;;;;;;;5072834;28;20440;-62
2023/08/15 03:21:57;;;;;;;9.87;8.93;;;;;;;;;;5073033;28;20443;-62
2023/08/15 03:24:25;;;;;;;9.30;8.50;;;;;;;;;;5072380;28;20452;-62
2023/08/15 03:26:53;;;;;;;10.37;9.30;;;;;;;;;;5072892;28;20520;-63
2023/08/15 03:29:20;;;;;;;9.70;8.80;;;;;;;;;;5073256;28;20519;-63
2023/08/15 03:31:47;;;;;;;9.20;8.50;;;;;;;;;;5073336;28;20441;-63
2023/08/15 03:34:14;;;;;;;9.93;8.93;;;;;;;;;;5072838;28;20529;-63
2023/08/15 03:36:42;;;;;;;9.70;8.90;;;;;;;;;;5073636;28;20447;-62
2023/08/15 03:39:09;;;;;;;12.63;8.50;;;;;;;;;;5072953;28;20440;-62
2023/08/15 03:41:37;;;;;;;10.03;8.73;;;;;;;;;;5072351;28;20440;-62
2023/08/15 03:44:05;;;;;;;10.10;9.20;;;;;;;;;;5072366;28;20441;-62
2023/08/15 03:46:32;;;;;;;10.90;8.70;;;;;;;;;;5072406;28;20440;-62
2023/08/15 03:48:59;;;;;;;9.73;8.93;;;;;;;;;;5076982;28;21033;-62
2023/08/15 03:51:27;;;;;;;10.57;8.90;;;;;;;;;;5071892;28;20488;-62
2023/08/15 03:53:54;;;;;;;13.83;9.40;;;;;;;;;;5090509;28;20463;-62
2023/08/15 03:56:21;;;;;;;9.67;8.60;;;;;;;;;;5092577;28;20450;-62
2023/08/15 03:58:50;;;;;;;10.13;9.10;;;;;;;;;;5092624;28;20531;-62
2023/08/15 04:01:17;;;;;;;10.10;9.13;;;;;;;;;;5092516;28;20529;-62
2023/08/15 04:03:44;;;;;;;11.40;9.53;;;;;;;;;;5091735;28;20455;-62
2023/08/15 04:06:11;;;;;;;15.93;8.87;;;;;;;;;;5092159;28;20431;-62
2023/08/15 04:08:38;;;;;;;13.70;9.17;;;;;;;;;;5092337;28;20523;-62
2023/08/15 04:11:06;;;;;;;10.57;9.47;;;;;;;;;;5091885;28;20494;-62
2023/08/15 04:13:33;;;;;;;15.40;9.80;;;;;;;;;;5092497;28;20622;-62
2023/08/15 04:16:01;;;;;;;11.30;9.07;;;;;;;;;;5096301;28;20523;-62
2023/08/15 04:18:28;;;;;;;11.60;8.47;;;;;;;;;;5095818;28;20526;-62
2023/08/15 04:20:56;;;;;;;12.10;7.90;;;;;;;;;;5095857;28;20926;-62
2023/08/15 04:23:23;;;;;;;10.57;9.57;;;;;;;;;;5095892;28;20901;-62
2023/08/15 04:25:50;;;;;;;9.60;8.70;;;;;;;;;;5096083;28;20867;-62
2023/08/15 04:28:17;;;;;;;11.03;9.70;;;;;;;;;;5096127;28;20526;-62
2023/08/15 04:30:44;;;;;;;10.77;8.67;;;;;;;;;;5095955;28;20566;-62
2023/08/15 04:33:13;;;;;;;10.20;9.07;;;;;;;;;;5096155;28;20783;-62
2023/08/15 04:35:40;;;;;;;9.83;8.83;;;;;;;;;;5095590;28;20804;-62
2023/08/15 04:38:07;;;;;;;10.60;9.50;;;;;;;;;;5096089;28;20526;-64
2023/08/15 04:40:39;;;;;;;9.23;8.27;;;;;;;;;;5095509;28;20531;-62
2023/08/15 04:43:06;;;;;;;14.40;9.60;;;;;;;;;;5095367;28;20464;-62
2023/08/15 04:45:40;;;;;;;9.60;8.60;;;;;;;;;;5095561;28;20443;-62
2023/08/15 04:48:07;;;;;;;8.80;8.00;;;;;;;;;;5096076;28;20503;-62
2023/08/15 04:50:36;;;;;;;9.03;8.17;;;;;;;;;;5095210;28;20489;-62
2023/08/15 04:53:03;;;;;;;9.80;8.60;;;;;;;;;;5095564;28;20531;-62
2023/08/15 04:55:30;;;;;;;13.67;9.90;;;;;;;;;;5095240;28;20505;-62
2023/08/15 04:57:58;;;;;;;9.73;8.83;;;;;;;;;;5095216;28;20890;-63
2023/08/15 05:00:25;;;;;;;10.77;9.73;;;;;;;;;;5095490;28;20461;-62
2023/08/15 05:02:52;;;;;;;9.83;8.93;;;;;;;;;;5095669;28;20482;-62
2023/08/15 05:05:19;;;;;;;10.37;9.07;;;;;;;;;;5095732;28;20436;-63
2023/08/15 05:07:48;;;;;;;10.03;9.00;;;;;;;;;;5095214;28;20927;-62
2023/08/15 05:10:15;;;;;;;10.90;9.90;;;;;;;;;;5095492;28;20512;-62
2023/08/15 05:12:42;;;;;;;12.60;10.10;;;;;;;;;;5095895;28;20432;-62
2023/08/15 05:15:10;;;;;;;14.83;10.37;;;;;;;;;;5095340;28;20440;-62
2023/08/15 05:17:37;;;;;;;14.30;10.37;;;;;;;;;;5095515;28;20441;-62
2023/08/15 05:20:05;;;;;;;13.20;11.07;;;;;;;;;;5095676;28;20436;-62
2023/08/15 05:22:32;;;;;;;12.77;10.93;;;;;;;;;;5095123;28;20524;-62
2023/08/15 05:25:01;;;;;;;11.53;10.40;;;;;;;;;;5094952;28;20436;-62
2023/08/15 05:27:28;;;;;;;12.57;11.40;;;;;;;;;;5094921;28;20527;-62
2023/08/15 05:29:55;;;;;;;14.27;11.10;;;;;;;;;;5095251;28;20440;-62
2023/08/15 05:32:22;;;;;;;16.83;15.13;;;;;;;;;;5095185;28;20439;-62
2023/08/15 05:34:49;;;;;;;16.60;14.00;;;;;;;;;;5095116;28;20956;-62
2023/08/15 05:37:17;;;;;;;34.73;14.00;;;;;;;;;;5095159;28;20531;-62
2023/08/15 05:39:44;;;;;;;17.73;12.13;;;;;;;;;;5095497;28;20520;-62
2023/08/15 05:42:17;;;;;;;21.00;13.07;;;;;;;;;;5094660;28;20450;-62
2023/08/15 05:44:45;;;;;;;31.43;16.00;;;;;;;;;;5095586;28;20783;-62
2023/08/15 05:47:12;;;;;;;22.50;16.13;;;;;;;;;;5094762;28;20435;-63
2023/08/15 05:49:39;;;;;;;16.07;13.00;;;;;;;;;;5094777;28;20445;-62
2023/08/15 05:52:07;;;;;;;28.20;13.33;;;;;;;;;;5094977;28;20563;-63
2023/08/15 05:54:34;;;;;;;70.50;17.60;;;;;;;;;;5094395;28;20935;-63
2023/08/15 05:57:01;;;;;;;18.07;13.00;;;;;;;;;;5094379;28;20442;-63
2023/08/15 05:59:30;;;;;;;22.20;14.90;;;;;;;;;;5094287;28;20526;-63
2023/08/15 06:01:57;;;;;;;41.30;17.70;;;;;;;;;;5094605;28;20450;-63
2023/08/15 06:04:24;;;;;;;26.43;14.20;;;;;;;;;;5094911;28;20795;-63
2023/08/15 06:06:51;;;;;;;80.07;20.87;;;;;;;;;;5094553;28;20436;-63
2023/08/15 06:09:19;;;;;;;22.57;14.17;;;;;;;;;;5094774;28;20428;-63
2023/08/15 06:11:46;;;;;;;23.47;14.30;;;;;;;;;;5094383;28;20557;-63
2023/08/15 06:14:13;;;;;;;19.50;14.17;;;;;;;;;;5094553;28;20477;-63
2023/08/15 06:16:42;;;;;;;25.67;15.90;;;;;;;;;;5094286;28;20523;-63
2023/08/15 06:19:09;;;;;;;11.90;10.63;;;;;;;;;;5094021;28;20518;-63
2023/08/15 06:21:36;;;;;;;19.77;13.60;;;;;;;;;;5094056;28;20501;-63
2023/08/15 06:24:04;;;;;;;18.97;11.80;;;;;;;;;;5094408;28;20439;-62
2023/08/15 06:26:31;;;;;;;110.80;22.90;;;;;;;;;;5094034;28;20510;-63
2023/08/15 06:28:58;;;;;;;22.33;13.03;;;;;;;;;;5093998;28;20439;-63
2023/08/15 06:31:26;;;;;;;14.57;10.40;;;;;;;;;;5094099;28;20475;-63
2023/08/15 06:33:54;;;;;;;17.57;12.10;;;;;;;;;;5094495;28;20440;-63
2023/08/15 06:36:21;;;;;;;12.63;11.10;;;;;;;;;;5093547;28;20985;-62
2023/08/15 06:38:50;;;;;;;16.77;10.77;;;;;;;;;;5093736;28;20920;-61
2023/08/15 06:41:17;;;;;;;17.50;10.47;;;;;;;;;;5093711;28;20452;-61
2023/08/15 06:43:44;;;;;;;13.50;10.60;;;;;;;;;;5093530;28;20436;-63
2023/08/15 06:46:12;;;;;;;14.07;10.10;;;;;;;;;;5093571;28;20443;-61
2023/08/15 06:48:39;;;;;;;13.47;9.40;;;;;;;;;;5093399;28;20511;-63
2023/08/15 06:51:08;;;;;;;19.70;10.10;;;;;;;;;;5093449;28;20507;-61
2023/08/15 06:53:35;;;;;;;27.27;10.80;;;;;;;;;;5092988;28;20463;-61
2023/08/15 06:56:02;;;;;;;10.87;9.87;;;;;;;;;;5093822;28;20421;-62
2023/08/15 06:58:30;;;;;;;14.20;10.93;;;;;;;;;;5093184;28;20527;-62
2023/08/15 07:00:57;;;;;;;11.13;9.90;;;;;;;;;;5093927;28;20789;-61
2023/08/15 07:03:24;;;;;;;12.40;10.50;;;;;;;;;;5093540;28;20509;-62
2023/08/15 07:05:51;;;;;;;12.47;10.77;;;;;;;;;;5093309;28;20527;-63
2023/08/15 07:08:20;;;;;;;12.33;11.20;;;;;;;;;;5093560;28;20539;-62
2023/08/15 07:10:47;;;;;;;13.13;11.23;;;;;;;;;;5093214;28;20455;-62
2023/08/15 07:13:14;;;;;;;13.80;11.20;;;;;;;;;;5093607;28;20535;-62
2023/08/15 07:15:41;;;;;;;17.00;11.40;;;;;;;;;;5093664;28;20431;-62
2023/08/15 07:18:08;;;;;;;15.43;13.40;;;;;;;;;;5093095;28;20536;-62
2023/08/15 07:20:36;;;;;;;17.73;12.90;;;;;;;;;;5093040;28;20444;-62
2023/08/15 07:23:02;;;;;;;16.20;12.23;;;;;;;;;;5093525;28;20584;-62
2023/08/15 07:25:30;;;;;;;14.40;12.97;;;;;;;;;;5093244;28;20782;-62
2023/08/15 07:27:58;;;;;;;16.80;15.00;;;;;;;;;;5092769;28;20483;-62
2023/08/15 07:30:25;;;;;;;16.67;14.10;;;;;;;;;;5093224;28;20834;-62
2023/08/15 07:32:52;;;;;;;14.40;13.00;;;;;;;;;;5092973;28;20514;-62
2023/08/15 07:35:19;;;;;;;16.17;14.57;;;;;;;;;;5093136;28;20443;-62
2023/08/15 07:37:46;;;;;;;18.20;15.90;;;;;;;;;;5092580;28;20987;-62
2023/08/15 07:40:20;;;;;;;18.03;16.10;;;;;;;;;;5093344;28;20797;-62
2023/08/15 07:42:49;;;;;;;17.97;16.13;;;;;;;;;;5093317;28;20511;-62
2023/08/15 07:45:16;;;;;;;21.17;16.30;;;;;;;;;;5093390;28;20445;-62
2023/08/15 07:47:44;;;;;;;20.33;16.90;;;;;;;;;;5092695;28;20997;-62
2023/08/15 07:50:16;;;;;;;19.40;17.57;;;;;;;;;;5095523;28;20521;-62
2023/08/15 07:52:43;;;;;;;19.43;17.33;;;;;;;;;;5097159;28;20469;-62
2023/08/15 07:55:11;;;;;;;18.87;15.40;;;;;;;;;;5097729;28;20569;-62
2023/08/15 07:57:38;;;;;;;16.73;15.17;;;;;;;;;;5097379;28;20520;-62
2023/08/15 08:00:08;;;;;;;17.43;15.80;;;;;;;;;;5097581;28;20520;-62
2023/08/15 08:02:36;;;;;;;15.70;14.10;;;;;;;;;;5096564;28;20451;-62
2023/08/15 08:05:06;;;;;;;19.00;15.80;;;;;;;;;;5097448;28;20465;-62
2023/08/15 08:07:33;;;;;;;17.43;14.20;;;;;;;;;;5097097;28;20506;-62
2023/08/15 08:10:00;;;;;;;18.70;13.20;;;;;;;;;;5097003;28;20442;-62
2023/08/15 08:12:28;;;;;;;13.00;11.53;;;;;;;;;;5096823;28;20593;-62
2023/08/15 08:14:55;;;;;;;12.43;11.07;;;;;;;;;;5097027;28;20436;-62
2023/08/15 08:17:24;;;;;;;11.93;9.90;;;;;;;;;;5097443;28;20472;-62
2023/08/15 08:19:51;;;;;;;11.03;9.60;;;;;;;;;;5096826;28;20949;-62
2023/08/15 08:22:18;;;;;;;14.20;9.27;;;;;;;;;;5096576;28;20473;-62
2023/08/15 08:24:46;;;;;;;11.97;8.30;;;;;;;;;;5096519;28;20913;-62
2023/08/15 08:27:14;;;;;;;14.10;7.97;;;;;;;;;;5096024;28;20523;-62
2023/08/15 08:29:41;;;;;;;12.73;7.63;;;;;;;;;;5096363;28;20490;-62
2023/08/15 08:32:08;;;;;;;10.47;6.90;;;;;;;;;;5095957;28;20478;-62
2023/08/15 08:34:37;;;;;;;10.50;7.30;;;;;;;;;;5096352;28;20883;-62
2023/08/15 08:37:05;;;;;;;7.70;6.90;;;;;;;;;;5096188;28;20523;-62
2023/08/15 08:39:32;;;;;;;10.70;7.03;;;;;;;;;;5096162;28;20740;-62
2023/08/15 08:42:00;;;;;;;6.93;6.20;;;;;;;;;;5096470;28;20438;-63
2023/08/15 08:44:28;;;;;;;8.30;6.83;;;;;;;;;;5096152;28;20434;-63
2023/08/15 08:46:55;;;;;;;8.20;5.43;;;;;;;;;;5096268;28;20444;-63
2023/08/15 08:49:24;;;;;;;9.57;5.17;;;;;;;;;;5096700;28;20437;-64
2023/08/15 08:51:53;;;;;;;7.33;5.63;;;;;;;;;;5095863;28;20581;-63
2023/08/15 08:54:20;;;;;;;5.80;4.97;;;;;;;;;;5095885;28;20472;-63
2023/08/15 08:56:49;;;;;;;8.00;4.87;;;;;;;;;;5095971;28;20873;-63
2023/08/15 08:59:20;;;;;;;5.43;3.93;;;;;;;;;;5095907;28;20479;-61
2023/08/15 09:01:47;;;;;;;5.27;3.43;;;;;;;;;;5096387;28;20434;-61
2023/08/15 09:04:14;;;;;;;3.63;3.33;;;;;;;;;;5095884;28;20439;-63
2023/08/15 09:06:41;;;;;;;4.13;3.73;;;;;;;;;;5095521;28;20441;-62
2023/08/15 09:09:10;;;;;;;10.40;3.47;;;;;;;;;;5095529;28;20801;-62
2023/08/15 09:11:37;;;;;;;3.40;3.03;;;;;;;;;;5095614;28;20514;-62
2023/08/15 09:14:05;;;;;;;7.30;3.43;;;;;;;;;;5095816;28;20433;-61
2023/08/15 09:16:33;;;;;;;5.47;2.93;;;;;;;;;;5095884;28;20440;-62
2023/08/15 09:19:02;;;;;;;3.53;2.30;;;;;;;;;;5094977;28;20444;-62
2023/08/15 09:21:30;;;;;;;2.57;2.30;;;;;;;;;;5095370;28;21019;-61
2023/08/15 09:23:59;;;;;;;3.83;2.23;;;;;;;;;;5095004;28;20443;-61
2023/08/15 09:26:27;;;;;;;6.23;2.30;;;;;;;;;;5095181;28;20627;-61
2023/08/15 09:28:55;;;;;;;3.67;2.70;;;;;;;;;;5095411;28;20440;-62
2023/08/15 09:31:22;;;;;;;3.53;3.20;;;;;;;;;;5095047;28;20978;-61
2023/08/15 09:33:49;;;;;;;3.67;2.60;;;;;;;;;;5094906;28;20978;-62
2023/08/15 09:36:16;;;;;;;4.30;2.60;;;;;;;;;;5095430;28;20527;-62
2023/08/15 09:38:43;;;;;;;5.73;3.10;;;;;;;;;;5095242;28;20525;-62
2023/08/15 09:41:11;;;;;;;6.83;3.50;;;;;;;;;;5095245;28;20528;-62
2023/08/15 09:43:50;;;;;;;6.60;4.07;;;;;;;;;;5094762;28;20446;-63
2023/08/15 09:46:18;;;;;;;10.70;5.20;;;;;;;;;;5094858;28;20431;-62
2023/08/15 09:48:46;;;;;;;4.93;3.83;;;;;;;;;;5094735;28;20441;-63
2023/08/15 09:51:14;;;;;;;3.60;2.73;;;;;;;;;;5095347;28;20439;-62
2023/08/15 09:53:43;;;;;;;6.20;3.27;;;;;;;;;;5095013;28;20517;-64
2023/08/15 09:56:10;;;;;;;3.67;2.80;;;;;;;;;;5094765;28;20455;-63
2023/08/15 09:58:38;;;;;;;5.47;2.77;;;;;;;;;;5095211;28;20431;-63
2023/08/15 10:01:07;;;;;;;3.93;3.53;;;;;;;;;;5094474;28;21068;-63
2023/08/15 10:03:36;;;;;;;6.97;3.37;;;;;;;;;;5094322;28;20451;-63
2023/08/15 10:06:04;;;;;;;4.07;2.37;;;;;;;;;;5094595;28;20436;-63
2023/08/15 10:08:32;;;;;;;4.67;3.00;;;;;;;;;;5094384;28;20434;-63
2023/08/15 10:10:59;;;;;;;5.10;2.57;;;;;;;;;;5094452;28;20439;-63
2023/08/15 10:13:28;;;;;;;4.23;2.80;;;;;;;;;;5094413;28;20483;-64
2023/08/15 10:15:56;;;;;;;4.00;3.10;;;;;;;;;;5094428;28;20434;-64
2023/08/15 10:18:25;;;;;;;3.80;2.57;;;;;;;;;;5094556;28;20438;-63
2023/08/15 10:20:54;;;;;;;3.70;2.80;;;;;;;;;;5094696;28;20509;-63
2023/08/15 10:23:25;;;;;;;3.53;2.63;;;;;;;;;;5094677;28;20439;-62
2023/08/15 10:25:53;;;;;;;4.20;2.50;;;;;;;;;;5094691;28;20431;-62
2023/08/15 10:28:21;;;;;;;3.90;2.50;;;;;;;;;;5094565;28;20785;-62
2023/08/15 10:30:50;;;;;;;4.47;2.30;;;;;;;;;;5094200;28;20443;-63
2023/08/15 10:33:18;;;;;;;3.37;2.43;;;;;;;;;;5093864;28;20581;-62
2023/08/15 10:35:51;;;;;;;2.90;2.40;;;;;;;;;;5093902;28;20525;-62
2023/08/15 10:38:20;;;;;;;5.00;2.03;;;;;;;;;;5094342;28;20448;-62
2023/08/15 10:40:47;;;;;;;3.30;2.27;;;;;;;;;;5094096;28;20814;-62
2023/08/15 10:43:15;;;;;;;2.87;2.30;;;;;;;;;;5094168;28;20496;-62
2023/08/15 10:45:43;;;;;;;3.20;2.40;;;;;;;;;;5094148;28;20463;-62
2023/08/15 10:48:11;;;;;;;2.97;2.57;;;;;;;;;;5093651;28;20542;-62
2023/08/15 10:50:43;;;;;;;4.23;2.13;;;;;;;;;;5093576;28;20521;-63
2023/08/15 10:53:12;;;;;;;4.83;2.03;;;;;;;;;;5093351;28;21033;-62
2023/08/15 10:55:40;;;;;;;2.67;2.40;;;;;;;;;;5094077;28;20431;-63
2023/08/15 10:58:08;;;;;;;2.63;1.80;;;;;;;;;;5093819;28;20440;-62
2023/08/15 11:00:36;;;;;;;3.20;2.17;;;;;;;;;;5093259;28;20438;-63
2023/08/15 11:03:05;;;;;;;3.83;1.90;;;;;;;;;;5094244;28;20464;-62
2023/08/15 11:05:32;;;;;;;4.03;2.23;;;;;;;;;;5093615;28;20513;-63
2023/08/15 11:08:14;;;;;;;3.93;2.10;;;;;;;;;;5093781;28;20527;-62
2023/08/15 11:10:44;;;;;;;2.07;1.80;;;;;;;;;;5093053;28;20538;-63
2023/08/15 11:13:11;;;;;;;3.77;1.90;;;;;;;;;;5093812;28;20482;-63
2023/08/15 11:15:39;;;;;;;3.33;2.20;;;;;;;;;;5093837;28;20530;-62
2023/08/15 11:18:06;;;;;;;5.17;1.80;;;;;;;;;;5093658;28;20472;-62
2023/08/15 11:20:34;;;;;;;2.87;2.00;;;;;;;;;;5093744;28;20528;-62
2023/08/15 11:23:01;;;;;;;3.67;2.40;;;;;;;;;;5092978;28;20442;-62
2023/08/15 11:25:30;;;;;;;2.67;2.00;;;;;;;;;;5093504;28;20435;-63
2023/08/15 11:27:57;;;;;;;2.20;2.00;;;;;;;;;;5093046;28;20532;-62
2023/08/15 11:30:25;;;;;;;5.50;2.20;;;;;;;;;;5093409;28;20440;-62
2023/08/15 11:32:52;;;;;;;4.07;2.70;;;;;;;;;;5093012;28;20906;-62
2023/08/15 11:35:19;;;;;;;2.43;2.00;;;;;;;;;;5093242;28;20438;-63
2023/08/15 11:37:47;;;;;;;4.93;1.80;;;;;;;;;;5093190;28;20527;-62
2023/08/15 11:40:14;;;;;;;3.33;2.00;;;;;;;;;;5092881;28;20437;-74
2023/08/15 11:42:43;;;;;;;2.30;1.87;;;;;;;;;;5093133;28;20796;-63
2023/08/15 11:45:11;;;;;;;3.93;1.90;;;;;;;;;;5092421;28;20450;-62
2023/08/15 11:47:52;;;;;;;3.70;1.97;;;;;;;;;;5093372;28;20539;-60
2023/08/15 11:50:20;;;;;;;4.77;2.37;;;;;;;;;;5093203;28;20909;-61
2023/08/15 11:52:47;;;;;;;5.23;2.33;;;;;;;;;;5092904;28;20485;-61
2023/08/15 11:55:14;;;;;;;3.00;1.80;;;;;;;;;;5093145;28;20558;-61
2023/08/15 11:57:43;;;;;;;3.40;2.17;;;;;;;;;;5093233;28;20449;-61
2023/08/15 12:00:11;;;;;;;4.20;2.60;;;;;;;;;;5087320;28;20457;-61
2023/08/15 12:02:43;;;;;;;3.43;1.97;;;;;;;;;;5088936;28;20928;-61
2023/08/15 12:05:11;;;;;;;3.53;2.20;;;;;;;;;;5092671;28;20427;-61
2023/08/15 12:07:38;;;;;;;3.70;1.87;;;;;;;;;;5092714;28;20450;-61
2023/08/15 12:10:06;;;;;;;5.03;2.80;;;;;;;;;;5092434;28;20468;-61
2023/08/15 12:12:38;;;;;;;5.20;2.30;;;;;;;;;;5092569;28;20483;-61
2023/08/15 12:15:08;;;;;;;3.47;2.43;;;;;;;;;;5092162;28;20425;-61
2023/08/15 12:17:35;;;;;;;3.67;2.20;;;;;;;;;;5092120;28;20944;-61
2023/08/15 12:20:03;;;;;;;4.20;2.23;;;;;;;;;;5092697;28;20438;-61
2023/08/15 12:22:30;;;;;;;4.10;2.30;;;;;;;;;;5092658;28;20462;-61
2023/08/15 12:24:58;;;;;;;5.13;2.20;;;;;;;;;;5092053;28;20569;-61
2023/08/15 12:27:25;;;;;;;8.07;2.80;;;;;;;;;;5092004;28;20928;-61
2023/08/15 12:29:52;;;;;;;9.43;3.63;;;;;;;;;;5092507;28;20518;-61
2023/08/15 12:32:21;;;;;;;9.80;2.90;;;;;;;;;;5092106;28;20439;-61
2023/08/15 12:34:48;;;;;;;6.17;2.10;;;;;;;;;;5092592;28;20447;-60
2023/08/15 12:37:15;;;;;;;2.93;2.40;;;;;;;;;;5096055;28;20879;-62
2023/08/15 12:39:42;;;;;;;3.77;2.23;;;;;;;;;;5096061;28;20527;-62
2023/08/15 12:42:09;;;;;;;4.20;2.80;;;;;;;;;;5096491;28;20534;-62
2023/08/15 12:44:37;;;;;;;4.47;2.67;;;;;;;;;;5095868;28;20533;-62
2023/08/15 12:47:04;;;;;;;5.50;2.33;;;;;;;;;;5095936;28;20501;-62
2023/08/15 12:49:33;;;;;;;3.57;2.47;;;;;;;;;;5096236;28;20527;-62
2023/08/15 12:52:00;;;;;;;7.43;3.10;;;;;;;;;;5095729;28;20446;-61
2023/08/15 12:54:27;;;;;;;3.40;2.60;;;;;;;;;;5095800;28;20582;-62
2023/08/15 12:56:55;;;;;;;3.60;2.30;;;;;;;;;;5095499;28;20432;-62
2023/08/15 12:59:22;;;;;;;5.87;3.30;;;;;;;;;;5095520;28;20539;-62
2023/08/15 13:01:49;;;;;;;3.87;2.43;;;;;;;;;;5095751;28;20466;-62
2023/08/15 13:04:16;;;;;;;4.30;2.53;;;;;;;;;;5096038;28;20619;-62
2023/08/15 13:06:45;;;;;;;7.20;3.00;;;;;;;;;;5095532;28;20523;-63
2023/08/15 13:09:12;;;;;;;6.93;3.37;;;;;;;;;;5096162;28;20522;-63
2023/08/15 13:11:39;;;;;;;3.73;2.77;;;;;;;;;;5095689;28;20446;-63
2023/08/15 13:14:07;;;;;;;4.73;3.00;;;;;;;;;;5095855;28;20563;-62
2023/08/15 13:16:34;;;;;;;3.70;2.43;;;;;;;;;;5095011;28;20446;-62
2023/08/15 13:19:02;;;;;;;3.00;2.20;;;;;;;;;;5095372;28;20447;-63
2023/08/15 13:21:29;;;;;;;3.37;2.57;;;;;;;;;;5095143;28;20968;-63
2023/08/15 13:23:58;;;;;;;3.83;2.40;;;;;;;;;;5095712;28;20447;-62
2023/08/15 13:26:25;;;;;;;6.37;3.67;;;;;;;;;;5095646;28;20492;-62
2023/08/15 13:28:52;;;;;;;5.00;2.87;;;;;;;;;;5095476;28;20467;-62
2023/08/15 13:31:19;;;;;;;5.20;2.83;;;;;;;;;;5095787;28;20554;-62
2023/08/15 13:33:47;;;;;;;2.80;2.30;;;;;;;;;;5095185;28;20574;-63
2023/08/15 13:36:14;;;;;;;4.30;2.00;;;;;;;;;;5095195;28;20519;-63
2023/08/15 13:38:41;;;;;;;3.70;2.80;;;;;;;;;;5095172;28;20470;-63
2023/08/15 13:41:10;;;;;;;4.47;2.77;;;;;;;;;;5078047;28;20808;-62
2023/08/15 13:43:37;;;;;;;4.60;2.90;;;;;;;;;;5074864;28;20874;-66
2023/08/15 13:46:05;;;;;;;4.13;2.60;;;;;;;;;;5073876;28;20523;-65
2023/08/15 13:48:33;;;;;;;5.40;3.00;;;;;;;;;;5074339;28;20870;-66
2023/08/15 13:51:00;;;;;;;5.70;3.00;;;;;;;;;;5074877;28;20433;-66
2023/08/15 13:53:29;;;;;;;4.43;3.30;;;;;;;;;;5074312;28;20501;-67
2023/08/15 13:55:56;;;;;;;5.63;2.70;;;;;;;;;;5074630;28;20422;-67
2023/08/15 13:58:26;;;;;;;4.77;2.80;;;;;;;;;;5074399;28;20523;-67
2023/08/15 14:00:53;;;;;;;5.67;2.70;;;;;;;;;;5074357;28;20879;-67
2023/08/15 14:03:21;;;;;;;5.40;2.70;;;;;;;;;;5074420;28;20523;-66
2023/08/15 14:05:48;;;;;;;5.30;2.93;;;;;;;;;;5074020;28;20440;-64
2023/08/15 14:08:15;;;;;;;4.30;2.83;;;;;;;;;;5074494;28;20948;-70
2023/08/15 14:10:43;;;;;;;4.40;2.73;;;;;;;;;;5074329;28;20476;-67
2023/08/15 14:13:10;;;;;;;4.30;2.60;;;;;;;;;;5073831;28;20520;-68
2023/08/15 14:15:38;;;;;;;4.63;2.77;;;;;;;;;;5074189;28;20536;-67
2023/08/15 14:18:06;;;;;;;4.23;2.73;;;;;;;;;;5074180;28;20450;-67
2023/08/15 14:20:35;;;;;;;7.47;3.20;;;;;;;;;;5074314;28;20730;-66
2023/08/15 14:23:03;;;;;;;5.70;3.37;;;;;;;;;;5073764;28;20464;-67
2023/08/15 14:25:30;;;;;;;5.00;2.47;;;;;;;;;;5073991;28;20479;-67
2023/08/15 14:27:58;;;;;;;6.20;3.17;;;;;;;;;;5073723;28;20515;-69
2023/08/15 14:30:26;;;;;;;4.87;3.27;;;;;;;;;;5073986;28;20433;-69
2023/08/15 14:32:54;;;;;;;5.07;2.57;;;;;;;;;;5093094;28;20799;-69
2023/08/15 14:35:22;;;;;;;6.30;2.70;;;;;;;;;;5093573;28;20478;-69
2023/08/15 14:37:49;;;;;;;5.70;2.50;;;;;;;;;;5094454;28;20444;-69
2023/08/15 14:40:19;;;;;;;6.27;3.03;;;;;;;;;;5093654;28;20468;-68